Terminal Aerodrome Forecast
Issued by NWS

Home | Current Version | Previous Version | Text Only | Print | Product List | Glossary Off
Versions: 1 2 3 4 5 6 7 8 9 10 11 12 13 14 15 16

000
FTUS42 KMHX 240100 AAA
TAFOAJ
TAF AMD
KOAJ 240118Z 2401/2424 10010KT 5SM RA BR BKN004 OVC009
     FM240500 17015G24KT 3SM RA BR OVC006
     FM240800 21010G17KT 2SM -RA BR OVC004
     FM241400 29010G18KT 3SM -RA BR OVC007
     FM242000 28010G18KT P6SM BKN025
      AMD LTD TO CLD VIS AND WIND=

USA.gov is the U.S. government's official web portal to all federal, state and local government web resources and services.